sensor_id;sensor_type;location;lat;lon;timestamp;P1;P2;P0
65012;PMS5003;51715;39.432;-77.518;2022-10-16T00:01:15;16;16;
65012;PMS5003;51715;39.432;-77.518;2022-10-16T00:03:45;23;23;
65012;PMS5003;51715;39.432;-77.518;2022-10-16T00:10:20;21;21;
65012;PMS5003;51715;39.432;-77.518;2022-10-16T00:12:48;16;16;
65012;PMS5003;51715;39.432;-77.518;2022-10-16T00:15:17;19;19;
65012;PMS5003;51715;39.432;-77.518;2022-10-16T00:17:45;23;23;
65012;PMS5003;51715;39.432;-77.518;2022-10-16T00:20:13;17;15;
65012;PMS5003;51715;39.432;-77.518;2022-10-16T00:22:41;18;16;
65012;PMS5003;51715;39.432;-77.518;2022-10-16T00:25:10;22;18;
65012;PMS5003;51715;39.432;-77.518;2022-10-16T00:27:39;17;15;
65012;PMS5003;51715;39.432;-77.518;2022-10-16T00:30:08;16;16;
65012;PMS5003;51715;39.432;-77.518;2022-10-16T00:32:36;15;15;
65012;PMS5003;51715;39.432;-77.518;2022-10-16T00:35:05;17;14;
65012;PMS5003;51715;39.432;-77.518;2022-10-16T00:37:35;16;14;
65012;PMS5003;51715;39.432;-77.518;2022-10-16T00:40:04;17;14;
65012;PMS5003;51715;39.432;-77.518;2022-10-16T00:42:35;20;18;
65012;PMS5003;51715;39.432;-77.518;2022-10-16T00:45:03;16;14;
65012;PMS5003;51715;39.432;-77.518;2022-10-16T00:47:32;15;15;
65012;PMS5003;51715;39.432;-77.518;2022-10-16T00:50:06;19;19;
65012;PMS5003;51715;39.432;-77.518;2022-10-16T00:52:41;21;21;
65012;PMS5003;51715;39.432;-77.518;2022-10-16T00:55:13;26;23;
65012;PMS5003;51715;39.432;-77.518;2022-10-16T00:57:41;17;17;
65012;PMS5003;51715;39.432;-77.518;2022-10-16T01:00:14;23;21;
65012;PMS5003;51715;39.432;-77.518;2022-10-16T01:02:51;19;19;
65012;PMS5003;51715;39.432;-77.518;2022-10-16T01:05:21;20;20;
65012;PMS5003;51715;39.432;-77.518;2022-10-16T01:07:56;19;19;
65012;PMS5003;51715;39.432;-77.518;2022-10-16T01:10:31;19;18;
65012;PMS5003;51715;39.432;-77.518;2022-10-16T01:13:06;24;21;
65012;PMS5003;51715;39.432;-77.518;2022-10-16T01:15:38;22;22;
65012;PMS5003;51715;39.432;-77.518;2022-10-16T01:18:14;21;18;
65012;PMS5003;51715;39.432;-77.518;2022-10-16T01:20:46;21;19;
65012;PMS5003;51715;39.432;-77.518;2022-10-16T01:23:25;27;27;
65012;PMS5003;51715;39.432;-77.518;2022-10-16T01:26:09;25;24;
65012;PMS5003;51715;39.432;-77.518;2022-10-16T01:28:46;30;28;
65012;PMS5003;51715;39.432;-77.518;2022-10-16T01:31:20;32;30;
65012;PMS5003;51715;39.432;-77.518;2022-10-16T01:33:55;38;37;
65012;PMS5003;51715;39.432;-77.518;2022-10-16T01:36:29;32;31;
65012;PMS5003;51715;39.432;-77.518;2022-10-16T01:39:06;25;23;
65012;PMS5003;51715;39.432;-77.518;2022-10-16T01:41:39;29;29;
65012;PMS5003;51715;39.432;-77.518;2022-10-16T01:44:13;29;29;
65012;PMS5003;51715;39.432;-77.518;2022-10-16T01:46:46;29;27;
65012;PMS5003;51715;39.432;-77.518;2022-10-16T01:49:17;26;25;
65012;PMS5003;51715;39.432;-77.518;2022-10-16T01:51:54;23;23;
65012;PMS5003;51715;39.432;-77.518;2022-10-16T01:54:27;27;26;
65012;PMS5003;51715;39.432;-77.518;2022-10-16T01:56:58;27;23;
65012;PMS5003;51715;39.432;-77.518;2022-10-16T01:59:30;28;26;
65012;PMS5003;51715;39.432;-77.518;2022-10-16T02:02:04;31;28;
65012;PMS5003;51715;39.432;-77.518;2022-10-16T02:04:37;26;24;
65012;PMS5003;51715;39.432;-77.518;2022-10-16T02:07:10;34;33;
65012;PMS5003;51715;39.432;-77.518;2022-10-16T02:09:40;25;24;
65012;PMS5003;51715;39.432;-77.518;2022-10-16T02:12:10;28;25;
65012;PMS5003;51715;39.432;-77.518;2022-10-16T02:14:45;28;24;
65012;PMS5003;51715;39.432;-77.518;2022-10-16T02:17:16;22;22;
65012;PMS5003;51715;39.432;-77.518;2022-10-16T02:19:46;20;20;
65012;PMS5003;51715;39.432;-77.518;2022-10-16T02:22:20;23;23;
65012;PMS5003;51715;39.432;-77.518;2022-10-16T02:24:54;21;19;
65012;PMS5003;51715;39.432;-77.518;2022-10-16T02:27:27;20;20;
65012;PMS5003;51715;39.432;-77.518;2022-10-16T02:30:03;22;20;
65012;PMS5003;51715;39.432;-77.518;2022-10-16T04:04:03;13;12;
65012;PMS5003;51715;39.432;-77.518;2022-10-16T04:06:32;15;14;
65012;PMS5003;51715;39.432;-77.518;2022-10-16T04:09:01;17;17;
65012;PMS5003;51715;39.432;-77.518;2022-10-16T04:11:32;17;17;
65012;PMS5003;51715;39.432;-77.518;2022-10-16T04:14:01;25;25;
65012;PMS5003;51715;39.432;-77.518;2022-10-16T04:16:30;17;17;
65012;PMS5003;51715;39.432;-77.518;2022-10-16T04:18:58;17;17;
65012;PMS5003;51715;39.432;-77.518;2022-10-16T04:21:28;17;15;
65012;PMS5003;51715;39.432;-77.518;2022-10-16T04:23:56;11;11;
65012;PMS5003;51715;39.432;-77.518;2022-10-16T04:26:24;16;14;
65012;PMS5003;51715;39.432;-77.518;2022-10-16T04:28:53;18;15;
65012;PMS5003;51715;39.432;-77.518;2022-10-16T04:31:21;18;18;
65012;PMS5003;51715;39.432;-77.518;2022-10-16T04:33:49;30;27;
65012;PMS5003;51715;39.432;-77.518;2022-10-16T04:36:19;29;28;
65012;PMS5003;51715;39.432;-77.518;2022-10-16T04:38:47;17;16;
65012;PMS5003;51715;39.432;-77.518;2022-10-16T04:41:15;21;20;
65012;PMS5003;51715;39.432;-77.518;2022-10-16T04:43:43;9;9;
65012;PMS5003;51715;39.432;-77.518;2022-10-16T04:46:11;14;13;
65012;PMS5003;51715;39.432;-77.518;2022-10-16T04:48:39;16;13;
65012;PMS5003;51715;39.432;-77.518;2022-10-16T04:51:08;13;13;
65012;PMS5003;51715;39.432;-77.518;2022-10-16T04:53:36;16;12;
65012;PMS5003;51715;39.432;-77.518;2022-10-16T04:56:05;13;12;
65012;PMS5003;51715;39.432;-77.518;2022-10-16T04:58:34;12;12;
65012;PMS5003;51715;39.432;-77.518;2022-10-16T05:01:02;10;10;
65012;PMS5003;51715;39.432;-77.518;2022-10-16T05:03:32;11;9;
65012;PMS5003;51715;39.432;-77.518;2022-10-16T05:06:00;15;14;
65012;PMS5003;51715;39.432;-77.518;2022-10-16T05:08:28;11;11;
65012;PMS5003;51715;39.432;-77.518;2022-10-16T05:10:56;17;15;
65012;PMS5003;51715;39.432;-77.518;2022-10-16T05:13:24;35;31;
65012;PMS5003;51715;39.432;-77.518;2022-10-16T05:15:53;60;55;
65012;PMS5003;51715;39.432;-77.518;2022-10-16T05:18:21;24;22;
65012;PMS5003;51715;39.432;-77.518;2022-10-16T05:20:50;20;19;
65012;PMS5003;51715;39.432;-77.518;2022-10-16T05:23:18;20;18;
65012;PMS5003;51715;39.432;-77.518;2022-10-16T05:25:52;16;16;
65012;PMS5003;51715;39.432;-77.518;2022-10-16T05:28:21;15;15;
65012;PMS5003;51715;39.432;-77.518;2022-10-16T05:30:49;12;11;
65012;PMS5003;51715;39.432;-77.518;2022-10-16T05:33:19;8;8;
65012;PMS5003;51715;39.432;-77.518;2022-10-16T05:35:47;11;11;
65012;PMS5003;51715;39.432;-77.518;2022-10-16T05:38:15;10;10;
65012;PMS5003;51715;39.432;-77.518;2022-10-16T05:40:50;8;6;
65012;PMS5003;51715;39.432;-77.518;2022-10-16T05:43:18;11;8;
65012;PMS5003;51715;39.432;-77.518;2022-10-16T05:45:53;10;8;
65012;PMS5003;51715;39.432;-77.518;2022-10-16T05:48:22;6;6;
65012;PMS5003;51715;39.432;-77.518;2022-10-16T05:50:56;6;6;
65012;PMS5003;51715;39.432;-77.518;2022-10-16T05:53:25;5;5;
65012;PMS5003;51715;39.432;-77.518;2022-10-16T05:55:54;6;5;
65012;PMS5003;51715;39.432;-77.518;2022-10-16T05:58:24;5;5;
65012;PMS5003;51715;39.432;-77.518;2022-10-16T06:00:55;5;4;
65012;PMS5003;51715;39.432;-77.518;2022-10-16T06:03:23;4;4;
65012;PMS5003;51715;39.432;-77.518;2022-10-16T06:05:52;5;5;
65012;PMS5003;51715;39.432;-77.518;2022-10-16T06:08:21;9;6;
65012;PMS5003;51715;39.432;-77.518;2022-10-16T06:11:00;5;4;
65012;PMS5003;51715;39.432;-77.518;2022-10-16T06:13:29;6;3;
65012;PMS5003;51715;39.432;-77.518;2022-10-16T06:15:58;6;5;
65012;PMS5003;51715;39.432;-77.518;2022-10-16T06:18:28;2;2;
65012;PMS5003;51715;39.432;-77.518;2022-10-16T06:20:57;6;3;
65012;PMS5003;51715;39.432;-77.518;2022-10-16T06:23:25;3;3;
65012;PMS5003;51715;39.432;-77.518;2022-10-16T06:26:03;6;5;
65012;PMS5003;51715;39.432;-77.518;2022-10-16T06:28:32;3;3;
65012;PMS5003;51715;39.432;-77.518;2022-10-16T06:31:01;2;2;
65012;PMS5003;51715;39.432;-77.518;2022-10-16T06:33:32;3;1;
65012;PMS5003;51715;39.432;-77.518;2022-10-16T06:36:01;6;4;
65012;PMS5003;51715;39.432;-77.518;2022-10-16T06:38:29;3;3;
65012;PMS5003;51715;39.432;-77.518;2022-10-16T06:40:58;5;4;
65012;PMS5003;51715;39.432;-77.518;2022-10-16T06:43:28;4;4;
65012;PMS5003;51715;39.432;-77.518;2022-10-16T06:45:57;6;5;
65012;PMS5003;51715;39.432;-77.518;2022-10-16T06:48:27;7;6;
65012;PMS5003;51715;39.432;-77.518;2022-10-16T06:50:57;8;5;
65012;PMS5003;51715;39.432;-77.518;2022-10-16T06:53:26;3;3;
65012;PMS5003;51715;39.432;-77.518;2022-10-16T06:55:55;6;6;
65012;PMS5003;51715;39.432;-77.518;2022-10-16T06:58:24;5;4;
65012;PMS5003;51715;39.432;-77.518;2022-10-16T07:00:55;3;3;
65012;PMS5003;51715;39.432;-77.518;2022-10-16T07:03:23;7;6;
65012;PMS5003;51715;39.432;-77.518;2022-10-16T07:05:51;8;5;
65012;PMS5003;51715;39.432;-77.518;2022-10-16T07:08:20;4;4;
65012;PMS5003;51715;39.432;-77.518;2022-10-16T07:10:48;6;4;
65012;PMS5003;51715;39.432;-77.518;2022-10-16T07:13:24;4;4;
65012;PMS5003;51715;39.432;-77.518;2022-10-16T07:15:53;4;4;
65012;PMS5003;51715;39.432;-77.518;2022-10-16T07:18:21;7;6;
65012;PMS5003;51715;39.432;-77.518;2022-10-16T07:20:49;6;5;
65012;PMS5003;51715;39.432;-77.518;2022-10-16T07:23:17;5;3;
65012;PMS5003;51715;39.432;-77.518;2022-10-16T07:25:45;5;4;
65012;PMS5003;51715;39.432;-77.518;2022-10-16T07:28:20;4;3;
65012;PMS5003;51715;39.432;-77.518;2022-10-16T07:30:49;6;6;
65012;PMS5003;51715;39.432;-77.518;2022-10-16T07:33:18;5;5;
65012;PMS5003;51715;39.432;-77.518;2022-10-16T07:35:48;7;5;
65012;PMS5003;51715;39.432;-77.518;2022-10-16T07:38:18;3;3;
65012;PMS5003;51715;39.432;-77.518;2022-10-16T07:40:47;6;5;
65012;PMS5003;51715;39.432;-77.518;2022-10-16T07:43:22;6;5;
65012;PMS5003;51715;39.432;-77.518;2022-10-16T07:45:49;9;6;
65012;PMS5003;51715;39.432;-77.518;2022-10-16T07:48:18;5;5;
65012;PMS5003;51715;39.432;-77.518;2022-10-16T07:50:46;4;4;
65012;PMS5003;51715;39.432;-77.518;2022-10-16T07:53:14;7;4;
65012;PMS5003;51715;39.432;-77.518;2022-10-16T07:55:42;3;3;
65012;PMS5003;51715;39.432;-77.518;2022-10-16T07:58:10;5;5;
65012;PMS5003;51715;39.432;-77.518;2022-10-16T08:00:39;6;5;
65012;PMS5003;51715;39.432;-77.518;2022-10-16T08:03:08;5;4;
65012;PMS5003;51715;39.432;-77.518;2022-10-16T08:05:36;4;4;
65012;PMS5003;51715;39.432;-77.518;2022-10-16T08:08:04;3;3;
65012;PMS5003;51715;39.432;-77.518;2022-10-16T08:10:32;4;4;
65012;PMS5003;51715;39.432;-77.518;2022-10-16T08:13:00;5;5;
65012;PMS5003;51715;39.432;-77.518;2022-10-16T08:15:28;7;4;
65012;PMS5003;51715;39.432;-77.518;2022-10-16T08:17:57;4;4;
65012;PMS5003;51715;39.432;-77.518;2022-10-16T08:20:27;3;3;
65012;PMS5003;51715;39.432;-77.518;2022-10-16T08:22:56;5;5;
65012;PMS5003;51715;39.432;-77.518;2022-10-16T08:25:25;3;3;
65012;PMS5003;51715;39.432;-77.518;2022-10-16T08:27:54;4;4;
65012;PMS5003;51715;39.432;-77.518;2022-10-16T08:30:23;5;2;
65012;PMS5003;51715;39.432;-77.518;2022-10-16T08:32:52;7;5;
65012;PMS5003;51715;39.432;-77.518;2022-10-16T08:35:20;13;7;
65012;PMS5003;51715;39.432;-77.518;2022-10-16T08:37:48;6;4;
65012;PMS5003;51715;39.432;-77.518;2022-10-16T08:40:17;5;4;
65012;PMS5003;51715;39.432;-77.518;2022-10-16T08:42:51;4;4;
65012;PMS5003;51715;39.432;-77.518;2022-10-16T08:45:40;7;7;
65012;PMS5003;51715;39.432;-77.518;2022-10-16T08:48:20;3;3;
65012;PMS5003;51715;39.432;-77.518;2022-10-16T08:50:54;5;5;
65012;PMS5003;51715;39.432;-77.518;2022-10-16T08:53:24;7;5;
65012;PMS5003;51715;39.432;-77.518;2022-10-16T08:55:56;5;5;
65012;PMS5003;51715;39.432;-77.518;2022-10-16T08:58:26;3;2;
65012;PMS5003;51715;39.432;-77.518;2022-10-16T09:00:58;7;5;
65012;PMS5003;51715;39.432;-77.518;2022-10-16T09:03:32;6;4;
65012;PMS5003;51715;39.432;-77.518;2022-10-16T09:06:17;5;5;
65012;PMS5003;51715;39.432;-77.518;2022-10-16T09:08:58;5;3;
65012;PMS5003;51715;39.432;-77.518;2022-10-16T09:11:41;4;4;
65012;PMS5003;51715;39.432;-77.518;2022-10-16T09:14:22;4;4;
65012;PMS5003;51715;39.432;-77.518;2022-10-16T09:17:20;3;3;
65012;PMS5003;51715;39.432;-77.518;2022-10-16T09:19:59;4;4;
65012;PMS5003;51715;39.432;-77.518;2022-10-16T09:22:40;5;5;
65012;PMS5003;51715;39.432;-77.518;2022-10-16T09:25:13;5;4;
65012;PMS5003;51715;39.432;-77.518;2022-10-16T09:27:44;4;3;
65012;PMS5003;51715;39.432;-77.518;2022-10-16T09:30:16;3;3;
65012;PMS5003;51715;39.432;-77.518;2022-10-16T09:32:47;3;2;
65012;PMS5003;51715;39.432;-77.518;2022-10-16T09:35:19;4;3;
65012;PMS5003;51715;39.432;-77.518;2022-10-16T09:37:50;3;3;
65012;PMS5003;51715;39.432;-77.518;2022-10-16T09:40:25;4;4;
65012;PMS5003;51715;39.432;-77.518;2022-10-16T09:42:57;3;3;
65012;PMS5003;51715;39.432;-77.518;2022-10-16T09:45:33;6;5;
65012;PMS5003;51715;39.432;-77.518;2022-10-16T09:48:01;2;2;
65012;PMS5003;51715;39.432;-77.518;2022-10-16T09:50:38;4;3;
65012;PMS5003;51715;39.432;-77.518;2022-10-16T09:53:10;5;3;
65012;PMS5003;51715;39.432;-77.518;2022-10-16T09:55:48;1;1;
65012;PMS5003;51715;39.432;-77.518;2022-10-16T09:58:16;2;2;
65012;PMS5003;51715;39.432;-77.518;2022-10-16T10:00:48;4;3;
65012;PMS5003;51715;39.432;-77.518;2022-10-16T10:03:30;2;2;
65012;PMS5003;51715;39.432;-77.518;2022-10-16T10:06:05;2;2;
65012;PMS5003;51715;39.432;-77.518;2022-10-16T10:08:53;4;3;
65012;PMS5003;51715;39.432;-77.518;2022-10-16T10:11:43;4;4;
65012;PMS5003;51715;39.432;-77.518;2022-10-16T10:14:17;5;5;
65012;PMS5003;51715;39.432;-77.518;2022-10-16T10:16:48;4;3;
65012;PMS5003;51715;39.432;-77.518;2022-10-16T10:19:19;4;4;
65012;PMS5003;51715;39.432;-77.518;2022-10-16T10:21:49;5;3;
65012;PMS5003;51715;39.432;-77.518;2022-10-16T10:24:18;6;6;
65012;PMS5003;51715;39.432;-77.518;2022-10-16T10:26:49;1;1;
65012;PMS5003;51715;39.432;-77.518;2022-10-16T10:29:25;4;4;
65012;PMS5003;51715;39.432;-77.518;2022-10-16T10:32:07;4;3;
65012;PMS5003;51715;39.432;-77.518;2022-10-16T10:34:50;5;4;
65012;PMS5003;51715;39.432;-77.518;2022-10-16T10:37:32;4;3;
65012;PMS5003;51715;39.432;-77.518;2022-10-16T10:40:15;4;2;
65012;PMS5003;51715;39.432;-77.518;2022-10-16T10:42:52;4;4;
65012;PMS5003;51715;39.432;-77.518;2022-10-16T10:45:26;5;3;
65012;PMS5003;51715;39.432;-77.518;2022-10-16T10:48:06;2;2;
65012;PMS5003;51715;39.432;-77.518;2022-10-16T10:50:48;4;4;
65012;PMS5003;51715;39.432;-77.518;2022-10-16T10:53:27;4;4;
65012;PMS5003;51715;39.432;-77.518;2022-10-16T10:56:07;2;2;
65012;PMS5003;51715;39.432;-77.518;2022-10-16T11:03:24;3;3;
65012;PMS5003;51715;39.432;-77.518;2022-10-16T11:06:00;3;3;
65012;PMS5003;51715;39.432;-77.518;2022-10-16T11:08:35;4;4;
65012;PMS5003;51715;39.432;-77.518;2022-10-16T11:11:08;3;3;
65012;PMS5003;51715;39.432;-77.518;2022-10-16T11:13:44;4;3;
65012;PMS5003;51715;39.432;-77.518;2022-10-16T11:16:23;4;4;
65012;PMS5003;51715;39.432;-77.518;2022-10-16T11:18:56;5;3;
65012;PMS5003;51715;39.432;-77.518;2022-10-16T11:21:33;4;3;
65012;PMS5003;51715;39.432;-77.518;2022-10-16T11:24:11;4;3;
65012;PMS5003;51715;39.432;-77.518;2022-10-16T11:26:45;3;3;
65012;PMS5003;51715;39.432;-77.518;2022-10-16T11:29:17;3;2;
65012;PMS5003;51715;39.432;-77.518;2022-10-16T11:31:53;3;3;
65012;PMS5003;51715;39.432;-77.518;2022-10-16T11:34:28;3;3;
65012;PMS5003;51715;39.432;-77.518;2022-10-16T11:37:02;3;3;
65012;PMS5003;51715;39.432;-77.518;2022-10-16T11:39:36;5;5;
65012;PMS5003;51715;39.432;-77.518;2022-10-16T11:42:08;3;3;
65012;PMS5003;51715;39.432;-77.518;2022-10-16T11:44:44;2;2;
65012;PMS5003;51715;39.432;-77.518;2022-10-16T11:47:24;4;4;
65012;PMS5003;51715;39.432;-77.518;2022-10-16T11:49:59;2;2;
65012;PMS5003;51715;39.432;-77.518;2022-10-16T11:52:35;4;4;
65012;PMS5003;51715;39.432;-77.518;2022-10-16T11:55:13;6;5;
65012;PMS5003;51715;39.432;-77.518;2022-10-16T11:57:45;3;3;
65012;PMS5003;51715;39.432;-77.518;2022-10-16T12:00:19;3;3;
65012;PMS5003;51715;39.432;-77.518;2022-10-16T12:02:54;3;3;
65012;PMS5003;51715;39.432;-77.518;2022-10-16T12:05:32;4;4;
65012;PMS5003;51715;39.432;-77.518;2022-10-16T12:08:12;2;2;
65012;PMS5003;51715;39.432;-77.518;2022-10-16T12:10:42;2;1;
65012;PMS5003;51715;39.432;-77.518;2022-10-16T12:13:29;5;5;
65012;PMS5003;51715;39.432;-77.518;2022-10-16T12:16:06;3;3;
65012;PMS5003;51715;39.432;-77.518;2022-10-16T12:18:47;3;2;
65012;PMS5003;51715;39.432;-77.518;2022-10-16T12:21:17;4;3;
65012;PMS5003;51715;39.432;-77.518;2022-10-16T12:23:57;3;3;
65012;PMS5003;51715;39.432;-77.518;2022-10-16T12:26:28;3;3;
65012;PMS5003;51715;39.432;-77.518;2022-10-16T12:29:13;4;3;
65012;PMS5003;51715;39.432;-77.518;2022-10-16T12:31:50;2;2;
65012;PMS5003;51715;39.432;-77.518;2022-10-16T12:34:21;2;1;
65012;PMS5003;51715;39.432;-77.518;2022-10-16T12:36:54;3;3;
65012;PMS5003;51715;39.432;-77.518;2022-10-16T12:39:34;8;3;
65012;PMS5003;51715;39.432;-77.518;2022-10-16T12:42:04;4;4;
65012;PMS5003;51715;39.432;-77.518;2022-10-16T12:44:46;4;4;
65012;PMS5003;51715;39.432;-77.518;2022-10-16T12:47:19;2;2;
65012;PMS5003;51715;39.432;-77.518;2022-10-16T12:49:51;5;5;
65012;PMS5003;51715;39.432;-77.518;2022-10-16T12:52:25;5;4;
65012;PMS5003;51715;39.432;-77.518;2022-10-16T12:54:57;3;3;
65012;PMS5003;51715;39.432;-77.518;2022-10-16T12:57:30;8;4;
65012;PMS5003;51715;39.432;-77.518;2022-10-16T13:00:10;4;4;
65012;PMS5003;51715;39.432;-77.518;2022-10-16T13:02:51;5;3;
65012;PMS5003;51715;39.432;-77.518;2022-10-16T13:05:35;6;6;
65012;PMS5003;51715;39.432;-77.518;2022-10-16T13:08:18;6;6;
65012;PMS5003;51715;39.432;-77.518;2022-10-16T13:11:02;4;4;
65012;PMS5003;51715;39.432;-77.518;2022-10-16T13:13:40;4;4;
65012;PMS5003;51715;39.432;-77.518;2022-10-16T13:16:40;5;5;
65012;PMS5003;51715;39.432;-77.518;2022-10-16T13:19:19;2;2;
65012;PMS5003;51715;39.432;-77.518;2022-10-16T13:21:56;6;5;
65012;PMS5003;51715;39.432;-77.518;2022-10-16T13:24:42;3;3;
65012;PMS5003;51715;39.432;-77.518;2022-10-16T13:27:23;5;4;
65012;PMS5003;51715;39.432;-77.518;2022-10-16T13:30:02;6;5;
65012;PMS5003;51715;39.432;-77.518;2022-10-16T13:32:39;7;7;
65012;PMS5003;51715;39.432;-77.518;2022-10-16T13:35:20;4;3;
65012;PMS5003;51715;39.432;-77.518;2022-10-16T13:37:50;6;6;
65012;PMS5003;51715;39.432;-77.518;2022-10-16T13:40:29;7;7;
65012;PMS5003;51715;39.432;-77.518;2022-10-16T13:42:59;4;4;
65012;PMS5003;51715;39.432;-77.518;2022-10-16T13:45:28;4;4;
65012;PMS5003;51715;39.432;-77.518;2022-10-16T13:48:01;4;4;
65012;PMS5003;51715;39.432;-77.518;2022-10-16T13:50:31;6;5;
65012;PMS5003;51715;39.432;-77.518;2022-10-16T13:53:07;4;2;
65012;PMS5003;51715;39.432;-77.518;2022-10-16T13:55:40;7;7;
65012;PMS5003;51715;39.432;-77.518;2022-10-16T13:58:12;4;4;
65012;PMS5003;51715;39.432;-77.518;2022-10-16T14:00:59;3;3;
65012;PMS5003;51715;39.432;-77.518;2022-10-16T14:03:29;3;3;
65012;PMS5003;51715;39.432;-77.518;2022-10-16T14:06:00;3;3;
65012;PMS5003;51715;39.432;-77.518;2022-10-16T14:08:30;4;4;
65012;PMS5003;51715;39.432;-77.518;2022-10-16T14:10:59;4;4;
65012;PMS5003;51715;39.432;-77.518;2022-10-16T14:13:31;3;3;
65012;PMS5003;51715;39.432;-77.518;2022-10-16T14:16:09;3;3;
65012;PMS5003;51715;39.432;-77.518;2022-10-16T14:18:45;6;5;
65012;PMS5003;51715;39.432;-77.518;2022-10-16T14:21:21;6;6;
65012;PMS5003;51715;39.432;-77.518;2022-10-16T14:23:50;6;3;
65012;PMS5003;51715;39.432;-77.518;2022-10-16T14:26:19;4;3;
65012;PMS5003;51715;39.432;-77.518;2022-10-16T14:29:00;5;5;
65012;PMS5003;51715;39.432;-77.518;2022-10-16T14:31:32;4;4;
65012;PMS5003;51715;39.432;-77.518;2022-10-16T14:34:01;5;3;
65012;PMS5003;51715;39.432;-77.518;2022-10-16T14:36:29;5;3;
65012;PMS5003;51715;39.432;-77.518;2022-10-16T14:39:00;3;3;
65012;PMS5003;51715;39.432;-77.518;2022-10-16T14:41:31;3;3;
65012;PMS5003;51715;39.432;-77.518;2022-10-16T14:44:10;6;3;
65012;PMS5003;51715;39.432;-77.518;2022-10-16T14:46:39;6;4;
65012;PMS5003;51715;39.432;-77.518;2022-10-16T14:49:14;4;4;
65012;PMS5003;51715;39.432;-77.518;2022-10-16T14:51:44;4;4;
65012;PMS5003;51715;39.432;-77.518;2022-10-16T14:54:14;5;5;
65012;PMS5003;51715;39.432;-77.518;2022-10-16T14:56:45;5;4;
65012;PMS5003;51715;39.432;-77.518;2022-10-16T14:59:18;4;3;
65012;PMS5003;51715;39.432;-77.518;2022-10-16T15:01:51;3;3;
65012;PMS5003;51715;39.432;-77.518;2022-10-16T15:04:20;4;4;
65012;PMS5003;51715;39.432;-77.518;2022-10-16T15:06:48;2;2;
65012;PMS5003;51715;39.432;-77.518;2022-10-16T15:09:17;4;4;
65012;PMS5003;51715;39.432;-77.518;2022-10-16T15:11:45;5;5;
65012;PMS5003;51715;39.432;-77.518;2022-10-16T15:14:14;7;5;
65012;PMS5003;51715;39.432;-77.518;2022-10-16T15:16:43;4;3;
65012;PMS5003;51715;39.432;-77.518;2022-10-16T15:19:11;5;5;
65012;PMS5003;51715;39.432;-77.518;2022-10-16T15:21:39;4;3;
65012;PMS5003;51715;39.432;-77.518;2022-10-16T15:24:09;3;3;
65012;PMS5003;51715;39.432;-77.518;2022-10-16T15:26:39;6;5;
65012;PMS5003;51715;39.432;-77.518;2022-10-16T15:29:08;3;3;
65012;PMS5003;51715;39.432;-77.518;2022-10-16T15:31:36;1;1;
65012;PMS5003;51715;39.432;-77.518;2022-10-16T15:34:05;3;3;
65012;PMS5003;51715;39.432;-77.518;2022-10-16T15:36:37;2;2;
65012;PMS5003;51715;39.432;-77.518;2022-10-16T15:39:10;2;2;
65012;PMS5003;51715;39.432;-77.518;2022-10-16T15:41:42;3;1;
65012;PMS5003;51715;39.432;-77.518;2022-10-16T15:44:11;1;1;
65012;PMS5003;51715;39.432;-77.518;2022-10-16T15:46:40;1;1;
65012;PMS5003;51715;39.432;-77.518;2022-10-16T15:49:08;3;1;
65012;PMS5003;51715;39.432;-77.518;2022-10-16T15:51:38;2;2;
65012;PMS5003;51715;39.432;-77.518;2022-10-16T15:54:08;1;1;
65012;PMS5003;51715;39.432;-77.518;2022-10-16T15:56:36;4;3;
65012;PMS5003;51715;39.432;-77.518;2022-10-16T15:59:05;4;4;
65012;PMS5003;51715;39.432;-77.518;2022-10-16T16:01:33;1;1;
65012;PMS5003;51715;39.432;-77.518;2022-10-16T16:04:02;2;2;
65012;PMS5003;51715;39.432;-77.518;2022-10-16T16:06:39;2;2;
65012;PMS5003;51715;39.432;-77.518;2022-10-16T16:09:08;4;3;
65012;PMS5003;51715;39.432;-77.518;2022-10-16T16:11:36;2;2;
65012;PMS5003;51715;39.432;-77.518;2022-10-16T16:14:04;1;0;
65012;PMS5003;51715;39.432;-77.518;2022-10-16T16:16:33;0;0;
65012;PMS5003;51715;39.432;-77.518;2022-10-16T16:19:01;2;2;
65012;PMS5003;51715;39.432;-77.518;2022-10-16T16:21:30;3;3;
65012;PMS5003;51715;39.432;-77.518;2022-10-16T16:23:59;3;3;
65012;PMS5003;51715;39.432;-77.518;2022-10-16T16:26:28;2;2;
65012;PMS5003;51715;39.432;-77.518;2022-10-16T16:28:56;2;2;
65012;PMS5003;51715;39.432;-77.518;2022-10-16T16:31:25;3;3;
65012;PMS5003;51715;39.432;-77.518;2022-10-16T16:33:55;3;2;
65012;PMS5003;51715;39.432;-77.518;2022-10-16T16:36:23;1;1;
65012;PMS5003;51715;39.432;-77.518;2022-10-16T16:38:52;2;2;
65012;PMS5003;51715;39.432;-77.518;2022-10-16T16:41:21;1;1;
65012;PMS5003;51715;39.432;-77.518;2022-10-16T16:43:51;4;3;
65012;PMS5003;51715;39.432;-77.518;2022-10-16T16:46:19;2;2;
65012;PMS5003;51715;39.432;-77.518;2022-10-16T16:48:48;4;3;
65012;PMS5003;51715;39.432;-77.518;2022-10-16T16:51:17;4;4;
65012;PMS5003;51715;39.432;-77.518;2022-10-16T16:53:48;1;1;
65012;PMS5003;51715;39.432;-77.518;2022-10-16T16:56:17;2;2;
65012;PMS5003;51715;39.432;-77.518;2022-10-16T16:58:47;3;3;
65012;PMS5003;51715;39.432;-77.518;2022-10-16T17:01:16;2;2;
65012;PMS5003;51715;39.432;-77.518;2022-10-16T17:03:45;3;3;
65012;PMS5003;51715;39.432;-77.518;2022-10-16T17:06:15;3;3;
65012;PMS5003;51715;39.432;-77.518;2022-10-16T17:08:44;2;2;
65012;PMS5003;51715;39.432;-77.518;2022-10-16T17:11:13;3;3;
65012;PMS5003;51715;39.432;-77.518;2022-10-16T17:13:43;5;4;
65012;PMS5003;51715;39.432;-77.518;2022-10-16T17:16:11;1;1;
65012;PMS5003;51715;39.432;-77.518;2022-10-16T17:18:40;2;2;
65012;PMS5003;51715;39.432;-77.518;2022-10-16T17:21:09;2;2;
65012;PMS5003;51715;39.432;-77.518;2022-10-16T17:23:37;3;2;
65012;PMS5003;51715;39.432;-77.518;2022-10-16T17:26:07;3;3;
65012;PMS5003;51715;39.432;-77.518;2022-10-16T17:28:38;3;3;
65012;PMS5003;51715;39.432;-77.518;2022-10-16T17:31:07;3;3;
65012;PMS5003;51715;39.432;-77.518;2022-10-16T17:33:36;3;3;
65012;PMS5003;51715;39.432;-77.518;2022-10-16T17:36:05;3;3;
65012;PMS5003;51715;39.432;-77.518;2022-10-16T17:38:34;3;2;
65012;PMS5003;51715;39.432;-77.518;2022-10-16T17:41:15;3;3;
65012;PMS5003;51715;39.432;-77.518;2022-10-16T17:43:44;0;0;
65012;PMS5003;51715;39.432;-77.518;2022-10-16T17:46:14;3;3;
65012;PMS5003;51715;39.432;-77.518;2022-10-16T17:48:45;3;3;
65012;PMS5003;51715;39.432;-77.518;2022-10-16T17:51:17;4;4;
65012;PMS5003;51715;39.432;-77.518;2022-10-16T17:53:47;3;3;
65012;PMS5003;51715;39.432;-77.518;2022-10-16T17:56:16;4;4;
65012;PMS5003;51715;39.432;-77.518;2022-10-16T17:58:47;4;3;
65012;PMS5003;51715;39.432;-77.518;2022-10-16T18:01:17;4;4;
65012;PMS5003;51715;39.432;-77.518;2022-10-16T18:03:48;4;4;
65012;PMS5003;51715;39.432;-77.518;2022-10-16T18:06:16;4;3;
65012;PMS5003;51715;39.432;-77.518;2022-10-16T18:08:45;4;4;
65012;PMS5003;51715;39.432;-77.518;2022-10-16T18:11:14;4;3;
65012;PMS5003;51715;39.432;-77.518;2022-10-16T18:13:43;5;5;
65012;PMS5003;51715;39.432;-77.518;2022-10-16T18:16:12;4;4;
65012;PMS5003;51715;39.432;-77.518;2022-10-16T18:18:41;5;5;
65012;PMS5003;51715;39.432;-77.518;2022-10-16T18:21:11;4;4;